createdAt,value
2018-03-30T00:01:02.123Z,6.20
2018-03-30T00:03:28.990Z,6.20
2018-03-30T00:05:55.955Z,6.10
2018-03-30T00:08:22.180Z,6.10
2018-03-30T00:10:53.645Z,6.00
2018-03-30T00:13:20.148Z,6.00
2018-03-30T00:15:47.710Z,5.90
2018-03-30T00:18:15.368Z,5.90
2018-03-30T00:20:42.622Z,5.80
2018-03-30T00:23:09.584Z,5.90
2018-03-30T00:25:35.818Z,5.80
2018-03-30T00:28:02.023Z,5.80
2018-03-30T00:30:29.810Z,5.80
2018-03-30T00:32:58.021Z,5.80
2018-03-30T00:35:24.208Z,5.80
2018-03-30T00:37:50.750Z,5.70
2018-03-30T00:40:18.138Z,5.60
2018-03-30T00:42:45.789Z,5.60
2018-03-30T00:45:11.994Z,5.60
2018-03-30T00:47:38.453Z,5.60
2018-03-30T00:50:06.068Z,5.50
2018-03-30T00:52:32.782Z,5.50
2018-03-30T00:54:59.129Z,5.40
2018-03-30T00:57:26.158Z,5.30
2018-03-30T00:59:52.347Z,5.30
2018-03-30T01:02:18.684Z,5.30
2018-03-30T01:04:45.851Z,5.30
2018-03-30T01:07:12.369Z,5.30
2018-03-30T01:09:39.371Z,5.30
2018-03-30T01:12:06.569Z,5.30
2018-03-30T01:14:32.801Z,5.30
2018-03-30T01:16:59.654Z,5.20
2018-03-30T01:19:25.870Z,5.10
2018-03-30T01:21:52.163Z,5.10
2018-03-30T01:24:18.380Z,5.10
2018-03-30T01:26:45.206Z,5.10
2018-03-30T01:29:11.711Z,5.00
2018-03-30T01:31:38.664Z,4.90
2018-03-30T01:34:05.043Z,4.90
2018-03-30T01:36:32.697Z,4.90
2018-03-30T01:38:59.161Z,4.80
2018-03-30T01:41:26.553Z,4.90
2018-03-30T01:43:53.620Z,4.80
2018-03-30T01:46:20.646Z,4.80
2018-03-30T01:48:47.519Z,4.80
2018-03-30T01:51:15.090Z,4.80
2018-03-30T01:53:41.280Z,4.80
2018-03-30T01:56:08.184Z,4.80
2018-03-30T01:58:34.387Z,4.80
2018-03-30T02:01:00.749Z,4.80
2018-03-30T02:03:28.051Z,4.80
2018-03-30T02:05:55.023Z,4.80
2018-03-30T02:08:22.160Z,4.80
2018-03-30T02:10:48.516Z,4.70
2018-03-30T02:13:15.277Z,4.70
2018-03-30T02:15:42.881Z,4.60
2018-03-30T02:18:09.062Z,4.60
2018-03-30T02:20:35.899Z,4.60
2018-03-30T02:23:02.339Z,4.70
2018-03-30T02:25:29.321Z,4.60
2018-03-30T02:27:57.250Z,4.50
2018-03-30T02:30:23.432Z,4.50
2018-03-30T02:32:52.091Z,4.50
2018-03-30T02:35:19.227Z,4.30
2018-03-30T02:37:46.218Z,4.30
2018-03-30T02:40:12.556Z,4.30
2018-03-30T02:42:38.968Z,4.40
2018-03-30T02:45:06.176Z,4.40
2018-03-30T02:47:33.683Z,4.30
2018-03-30T02:50:01.183Z,4.40
2018-03-30T02:52:27.399Z,4.40
2018-03-30T02:54:55.420Z,4.30
2018-03-30T02:57:21.996Z,4.30
2018-03-30T02:59:48.997Z,4.30
2018-03-30T03:02:15.954Z,4.30
2018-03-30T03:04:42.233Z,4.30
2018-03-30T03:07:09.773Z,4.20
2018-03-30T03:09:36.767Z,4.20
2018-03-30T03:12:04.246Z,4.10
2018-03-30T03:14:31.037Z,4.10
2018-03-30T03:16:58.151Z,4.00
2018-03-30T03:19:24.358Z,4.00
2018-03-30T03:21:51.607Z,4.00
2018-03-30T03:24:18.391Z,4.10
2018-03-30T03:26:44.838Z,4.00
2018-03-30T03:29:11.027Z,4.00
2018-03-30T03:31:38.375Z,4.00
2018-03-30T03:34:05.235Z,4.00
2018-03-30T03:36:31.438Z,4.00
2018-03-30T03:38:57.618Z,4.00
2018-03-30T03:41:23.856Z,3.90
2018-03-30T03:43:50.602Z,3.90
2018-03-30T03:46:16.803Z,3.90
2018-03-30T03:48:43.663Z,3.90
2018-03-30T03:51:10.378Z,3.80
2018-03-30T03:53:37.909Z,3.90
2018-03-30T03:56:04.961Z,3.80
2018-03-30T03:58:31.217Z,3.80
2018-03-30T04:00:57.929Z,3.80
2018-03-30T04:03:25.201Z,3.80
2018-03-30T04:05:52.832Z,3.50
2018-03-30T04:08:19.334Z,3.50
2018-03-30T04:10:46.309Z,3.40
2018-03-30T04:13:13.482Z,3.40
2018-03-30T04:15:39.688Z,3.50
2018-03-30T04:18:07.066Z,3.50
2018-03-30T04:20:33.264Z,3.50
2018-03-30T04:23:00.202Z,3.60
2018-03-30T04:25:27.174Z,3.60
2018-03-30T04:27:53.380Z,3.60
2018-03-30T04:30:20.744Z,3.70
2018-03-30T04:32:47.760Z,3.60
2018-03-30T04:35:14.559Z,3.60
2018-03-30T04:37:40.950Z,3.60
2018-03-30T04:40:09.127Z,3.50
2018-03-30T04:42:36.360Z,3.50
2018-03-30T04:45:03.346Z,3.50
2018-03-30T04:47:29.929Z,3.50
2018-03-30T04:49:57.445Z,3.50
2018-03-30T04:52:23.865Z,3.50
2018-03-30T04:54:51.295Z,3.60
2018-03-30T04:57:18.765Z,3.60
2018-03-30T04:59:46.063Z,3.60
2018-03-30T05:02:13.072Z,3.60
2018-03-30T05:04:39.391Z,3.60
2018-03-30T05:07:06.902Z,3.70
2018-03-30T05:09:33.098Z,3.70
2018-03-30T05:11:59.863Z,3.70
2018-03-30T05:14:26.082Z,3.80
2018-03-30T05:16:52.800Z,3.80
2018-03-30T05:19:19.108Z,3.80
2018-03-30T05:21:47.160Z,3.90
2018-03-30T05:24:14.412Z,4.00
2018-03-30T05:26:41.944Z,4.00
2018-03-30T05:29:08.143Z,4.00
2018-03-30T05:31:34.618Z,4.10
2018-03-30T05:34:01.230Z,4.10
2018-03-30T05:36:28.769Z,4.00
2018-03-30T05:38:55.338Z,4.00
2018-03-30T05:41:22.310Z,3.90
2018-03-30T05:43:49.637Z,3.90
2018-03-30T05:46:16.657Z,4.00
2018-03-30T05:48:45.047Z,4.10
2018-03-30T05:51:11.548Z,4.10
2018-03-30T05:53:38.603Z,4.30
2018-03-30T05:56:05.348Z,4.20
2018-03-30T05:58:31.536Z,4.40
2018-03-30T06:00:57.912Z,4.40
2018-03-30T06:03:24.210Z,4.40
2018-03-30T06:05:52.352Z,4.70
2018-03-30T06:08:19.327Z,4.90
2018-03-30T06:10:46.516Z,5.10
2018-03-30T06:13:12.723Z,5.00
2018-03-30T06:15:38.988Z,5.20
2018-03-30T06:18:05.175Z,5.40
2018-03-30T06:20:31.415Z,5.60
2018-03-30T06:22:57.679Z,5.60
2018-03-30T06:25:23.890Z,5.80
2018-03-30T06:27:50.403Z,5.90
2018-03-30T06:30:17.963Z,6.10
2018-03-30T06:32:44.192Z,6.10
2018-03-30T06:35:10.542Z,6.20
2018-03-30T06:37:36.761Z,6.20
2018-03-30T06:40:03.022Z,6.30
2018-03-30T06:42:29.887Z,6.30
2018-03-30T06:44:56.846Z,6.30
2018-03-30T06:47:24.432Z,6.40
2018-03-30T06:49:50.774Z,6.40
2018-03-30T06:52:17.059Z,6.50
2018-03-30T06:54:44.203Z,6.80
2018-03-30T06:57:11.161Z,6.90
2018-03-30T06:59:38.111Z,7.00
2018-03-30T07:02:05.371Z,7.00
2018-03-30T07:04:32.303Z,7.20
2018-03-30T07:06:58.552Z,7.30
2018-03-30T07:09:24.803Z,7.40
2018-03-30T07:11:51.937Z,7.50
2018-03-30T07:14:18.139Z,7.50
2018-03-30T07:16:44.783Z,7.70
2018-03-30T07:19:12.305Z,8.20
2018-03-30T07:21:39.587Z,8.30
2018-03-30T07:24:06.875Z,8.30
2018-03-30T07:26:34.257Z,8.30
2018-03-30T07:29:00.527Z,8.20
2018-03-30T07:31:26.788Z,8.20
2018-03-30T07:33:53.271Z,8.30
2018-03-30T07:36:20.549Z,8.30
2018-03-30T07:38:50.957Z,8.30
2018-03-30T07:41:17.374Z,8.40
2018-03-30T07:43:45.297Z,8.40
2018-03-30T07:46:11.528Z,8.30
2018-03-30T07:48:38.634Z,8.60
2018-03-30T07:51:05.759Z,9.30
2018-03-30T07:53:32.547Z,9.30
2018-03-30T07:55:59.614Z,9.30
2018-03-30T07:58:25.974Z,9.30
2018-03-30T08:00:52.752Z,9.10
2018-03-30T08:03:19.554Z,8.90
2018-03-30T08:05:45.760Z,8.60
2018-03-30T08:08:11.983Z,8.50
2018-03-30T08:10:38.793Z,8.50
2018-03-30T08:13:05.056Z,8.60
2018-03-30T08:15:31.365Z,8.70
2018-03-30T08:17:57.616Z,8.80
2018-03-30T08:20:23.822Z,8.90
2018-03-30T08:22:50.035Z,9.00
2018-03-30T08:25:16.293Z,9.10
2018-03-30T08:27:43.164Z,9.30
2018-03-30T08:30:10.194Z,9.50
2018-03-30T08:32:47.436Z,9.50
2018-03-30T08:35:18.485Z,9.50
2018-03-30T08:37:55.909Z,9.50
2018-03-30T08:40:37.250Z,9.50
2018-03-30T08:43:22.905Z,9.60
2018-03-30T09:34:55.823Z,11.40
2018-03-30T09:37:23.541Z,11.60
2018-03-30T09:39:50.421Z,11.60
2018-03-30T09:42:17.436Z,11.90
2018-03-30T09:44:43.887Z,11.90
2018-03-30T09:47:11.235Z,12.60
2018-03-30T09:49:38.637Z,13.10
2018-03-30T09:52:05.686Z,13.20
2018-03-30T09:54:32.470Z,13.20
2018-03-30T09:56:58.721Z,13.00
2018-03-30T09:59:26.172Z,13.00
2018-03-30T10:01:53.150Z,12.50
2018-03-30T10:04:22.825Z,12.40
2018-03-30T10:06:49.160Z,12.30
2018-03-30T10:09:17.465Z,12.00
2018-03-30T10:11:43.904Z,12.00
2018-03-30T10:14:10.152Z,12.10
2018-03-30T10:16:36.625Z,12.10
2018-03-30T10:19:03.239Z,12.40
2018-03-30T10:21:30.481Z,12.50
2018-03-30T10:23:57.246Z,12.60
2018-03-30T10:26:23.479Z,12.50
2018-03-30T10:28:49.700Z,12.50
2018-03-30T10:31:16.895Z,12.60
2018-03-30T10:33:43.981Z,12.60
2018-03-30T10:36:10.731Z,12.70
2018-03-30T10:38:36.952Z,12.70
2018-03-30T10:41:03.818Z,12.80
2018-03-30T10:43:31.382Z,12.90
2018-03-30T10:45:57.848Z,13.10
2018-03-30T10:48:24.859Z,13.40
2018-03-30T10:50:52.410Z,13.40
2018-03-30T10:53:19.569Z,13.60
2018-03-30T10:55:46.576Z,13.70
2018-03-30T10:58:12.899Z,13.70
2018-03-30T11:00:39.138Z,13.70
2018-03-30T11:03:06.233Z,13.60
2018-03-30T11:05:33.614Z,13.60
2018-03-30T11:08:00.358Z,13.50
2018-03-30T11:10:27.599Z,13.20
2018-03-30T11:12:54.419Z,13.10
2018-03-30T11:15:21.067Z,13.00
2018-03-30T11:17:47.982Z,13.00
2018-03-30T11:20:14.396Z,12.90
2018-03-30T11:22:40.662Z,12.90
2018-03-30T11:25:07.728Z,13.00
2018-03-30T11:27:34.685Z,13.00
2018-03-30T11:30:01.060Z,13.10
2018-03-30T11:32:28.713Z,13.00
2018-03-30T11:34:55.454Z,13.00
2018-03-30T11:37:22.011Z,13.00
2018-03-30T11:39:49.287Z,13.00
2018-03-30T11:42:15.894Z,13.00
2018-03-30T11:44:43.139Z,13.20
2018-03-30T11:47:10.250Z,13.20
2018-03-30T11:49:36.924Z,13.20
2018-03-30T11:52:04.889Z,13.30
2018-03-30T11:54:31.179Z,13.20
2018-03-30T11:56:57.719Z,13.20
2018-03-30T11:59:24.057Z,13.30
2018-03-30T12:01:50.716Z,13.30
2018-03-30T12:04:18.631Z,13.40
2018-03-30T12:06:45.427Z,13.40
2018-03-30T12:09:12.138Z,13.40
2018-03-30T12:11:38.472Z,13.50
2018-03-30T12:14:04.687Z,13.70
2018-03-30T12:16:31.406Z,13.90
2018-03-30T12:18:58.474Z,14.20
2018-03-30T12:21:25.230Z,14.20
2018-03-30T12:23:51.707Z,14.30
2018-03-30T12:28:52.229Z,14.80
2018-03-30T12:31:18.699Z,15.10
2018-03-30T12:33:46.405Z,15.30
2018-03-30T12:36:13.417Z,15.40
2018-03-30T12:38:39.772Z,15.40
2018-03-30T12:41:06.086Z,15.30
2018-03-30T12:43:32.910Z,15.40
2018-03-30T12:46:00.075Z,15.30
2018-03-30T12:48:26.313Z,15.30
2018-03-30T12:50:52.791Z,15.40
2018-03-30T12:53:20.277Z,15.50
2018-03-30T12:55:48.549Z,15.40
2018-03-30T12:58:15.479Z,15.30
2018-03-30T13:00:41.686Z,15.30
2018-03-30T13:03:07.998Z,15.30
2018-03-30T13:05:34.606Z,15.30
2018-03-30T13:08:01.408Z,15.40
2018-03-30T13:10:27.606Z,15.40
2018-03-30T13:12:54.148Z,15.30
2018-03-30T13:15:21.244Z,15.40
2018-03-30T13:17:48.826Z,15.60
2018-03-30T13:20:15.124Z,15.60
2018-03-30T13:22:42.094Z,15.80
2018-03-30T13:25:08.820Z,15.80
2018-03-30T13:27:36.775Z,16.10
2018-03-30T13:30:03.742Z,16.40
2018-03-30T13:32:30.608Z,16.40
2018-03-30T13:34:57.858Z,16.50
2018-03-30T13:37:24.848Z,16.50
2018-03-30T13:39:51.895Z,16.20
2018-03-30T13:42:19.081Z,16.20
2018-03-30T13:44:45.711Z,16.20
2018-03-30T13:47:12.682Z,15.80
2018-03-30T13:49:39.542Z,15.80
2018-03-30T13:52:16.395Z,15.80
2018-03-30T13:54:44.039Z,16.60
2018-03-30T13:57:23.306Z,16.60
2018-03-30T13:59:55.876Z,16.80
2018-03-30T14:02:25.994Z,16.80
2018-03-30T14:04:58.061Z,16.70
2018-03-30T14:07:26.750Z,16.60
2018-03-30T14:09:54.892Z,16.70
2018-03-30T14:12:23.943Z,16.60
2018-03-30T14:14:50.234Z,16.60
2018-03-30T14:17:36.152Z,16.70
2018-03-30T14:20:22.205Z,16.60
2018-03-30T14:22:49.961Z,16.70
2018-03-30T14:25:29.237Z,16.90
2018-03-30T14:27:59.260Z,16.90
2018-03-30T14:30:31.511Z,16.90
2018-03-30T14:33:01.648Z,16.90
2018-03-30T14:35:30.046Z,16.70
2018-03-30T14:38:01.979Z,16.50
2018-03-30T14:40:29.747Z,16.60
2018-03-30T14:42:56.923Z,16.70
2018-03-30T14:48:25.225Z,16.30
2018-03-30T14:51:02.658Z,16.20
2018-03-30T14:53:31.658Z,16.20
2018-03-30T14:56:10.265Z,16.30
2018-03-30T14:58:52.620Z,16.30
2018-03-30T15:01:34.477Z,16.40
2018-03-30T15:04:25.538Z,16.40
2018-03-30T15:07:10.619Z,16.40
2018-03-30T15:09:41.490Z,16.70
2018-03-30T15:12:28.518Z,16.70
2018-03-30T15:15:00.206Z,16.80
2018-03-30T15:17:30.955Z,16.70
2018-03-30T15:20:01.054Z,16.90
2018-03-30T15:22:32.127Z,16.90
2018-03-30T15:25:00.043Z,16.90
2018-03-30T15:27:28.235Z,16.90
2018-03-30T15:29:57.317Z,16.90
2018-03-30T15:32:24.979Z,16.90
2018-03-30T15:34:51.239Z,17.00
2018-03-30T15:37:21.726Z,16.60
2018-03-30T15:39:51.357Z,16.60
2018-03-30T15:42:18.288Z,16.60
2018-03-30T15:44:47.394Z,16.60
2018-03-30T15:47:14.160Z,16.60
2018-03-30T15:49:41.238Z,16.40
2018-03-30T15:52:09.949Z,16.40
2018-03-30T15:54:36.531Z,16.40
2018-03-30T15:57:05.543Z,16.40
2018-03-30T15:59:32.545Z,16.30
2018-03-30T16:01:59.095Z,16.40
2018-03-30T16:04:26.070Z,16.30
2018-03-30T16:06:52.726Z,16.30
2018-03-30T16:09:24.235Z,16.10
2018-03-30T16:11:54.792Z,16.00
2018-03-30T16:14:21.478Z,16.00
2018-03-30T16:16:47.764Z,16.00
2018-03-30T16:19:13.848Z,15.90
2018-03-30T16:21:40.153Z,15.90
2018-03-30T16:24:06.962Z,15.90
2018-03-30T16:26:33.948Z,15.80
2018-03-30T16:29:00.700Z,15.80
2018-03-30T16:31:26.794Z,15.80
2018-03-30T16:33:52.855Z,15.80
2018-03-30T16:36:20.648Z,15.70
2018-03-30T16:38:47.059Z,15.70
2018-03-30T16:41:14.078Z,15.70
2018-03-30T16:43:41.324Z,15.70
2018-03-30T16:46:08.125Z,15.70
2018-03-30T16:48:34.280Z,15.70
2018-03-30T16:51:00.487Z,15.80
2018-03-30T16:53:27.216Z,15.60
2018-03-30T16:55:53.214Z,15.60
2018-03-30T16:58:20.525Z,15.70
2018-03-30T17:00:46.908Z,15.60
2018-03-30T17:03:13.999Z,15.50
2018-03-30T17:05:40.504Z,15.50
2018-03-30T17:08:06.748Z,15.50
2018-03-30T17:10:32.795Z,15.40
2018-03-30T17:12:59.036Z,15.30
2018-03-30T17:15:25.743Z,15.20
2018-03-30T17:17:52.072Z,15.10
2018-03-30T17:20:18.912Z,15.00
2018-03-30T17:22:45.412Z,15.00
2018-03-30T17:25:12.274Z,14.90
2018-03-30T17:27:38.316Z,14.90
2018-03-30T17:30:05.233Z,14.90
2018-03-30T17:32:31.556Z,14.80
2018-03-30T17:34:59.445Z,14.70
2018-03-30T17:37:25.699Z,14.60
2018-03-30T17:39:51.860Z,14.60
2018-03-30T17:42:18.522Z,14.50
2018-03-30T17:44:45.442Z,14.30
2018-03-30T17:47:12.259Z,14.30
2018-03-30T17:49:38.544Z,14.30
2018-03-30T17:52:04.603Z,14.20
2018-03-30T17:54:31.347Z,14.10
2018-03-30T17:56:58.180Z,14.10
2018-03-30T17:59:24.191Z,14.00
2018-03-30T18:01:51.180Z,14.00
2018-03-30T18:04:17.944Z,13.90
2018-03-30T18:06:45.419Z,13.90
2018-03-30T18:09:12.405Z,13.90
2018-03-30T18:11:38.458Z,13.70
2018-03-30T18:14:05.386Z,13.70
2018-03-30T18:16:31.671Z,13.70
2018-03-30T18:18:58.430Z,13.60
2018-03-30T18:21:25.093Z,13.60
2018-03-30T18:23:51.802Z,13.60
2018-03-30T18:26:18.696Z,13.50
2018-03-30T18:28:46.325Z,13.50
2018-03-30T18:31:12.515Z,13.40
2018-03-30T18:33:38.557Z,13.40
2018-03-30T18:36:05.217Z,13.40
2018-03-30T18:38:32.019Z,13.40
2018-03-30T18:40:58.035Z,13.30
2018-03-30T18:43:24.620Z,13.30
2018-03-30T18:45:51.596Z,13.30
2018-03-30T18:48:17.711Z,13.20
2018-03-30T18:50:44.484Z,13.20
2018-03-30T18:53:10.847Z,13.20
2018-03-30T18:55:38.253Z,13.20
2018-03-30T18:58:04.309Z,13.20
2018-03-30T19:00:30.336Z,13.20
2018-03-30T19:02:57.179Z,13.10
2018-03-30T19:05:24.440Z,13.30
2018-03-30T19:07:52.363Z,13.20
2018-03-30T19:10:18.586Z,13.20
2018-03-30T19:12:45.599Z,13.20
2018-03-30T19:15:13.379Z,13.10
2018-03-30T19:17:40.952Z,13.10
2018-03-30T19:20:07.764Z,13.10
2018-03-30T19:22:34.181Z,13.10
2018-03-30T19:25:02.253Z,13.10
2018-03-30T19:27:29.051Z,13.10
2018-03-30T19:29:55.493Z,13.20
2018-03-30T19:32:22.586Z,13.20
2018-03-30T19:34:49.234Z,13.20
2018-03-30T19:37:15.660Z,13.30
2018-03-30T19:39:42.812Z,13.20
2018-03-30T19:42:09.582Z,13.20
2018-03-30T19:44:45.283Z,13.30
2018-03-30T19:47:18.416Z,13.20
2018-03-30T19:49:45.640Z,13.20
2018-03-30T19:52:12.421Z,13.20
2018-03-30T19:54:39.343Z,13.10
2018-03-30T19:57:06.792Z,13.10
2018-03-30T19:59:33.935Z,13.10
2018-03-30T20:02:04.869Z,13.10
2018-03-30T20:04:31.132Z,13.00
2018-03-30T20:06:59.096Z,13.10
2018-03-30T20:09:26.108Z,13.00
2018-03-30T20:11:52.367Z,13.00
2018-03-30T20:14:18.754Z,13.00
2018-03-30T20:26:31.264Z,13.00
2018-03-30T20:28:58.251Z,13.10
2018-03-30T20:31:26.385Z,13.10
2018-03-30T20:33:53.254Z,13.20
2018-03-30T20:36:20.774Z,13.20
2018-03-30T20:38:48.093Z,13.20
2018-03-30T20:41:14.745Z,13.20
2018-03-30T20:43:41.886Z,13.20
2018-03-30T20:46:09.087Z,13.30
2018-03-30T20:48:36.254Z,13.30
2018-03-30T20:51:02.278Z,13.30
2018-03-30T20:53:28.378Z,13.30
2018-03-30T20:55:55.599Z,13.30
2018-03-30T20:58:22.296Z,13.30
2018-03-30T21:00:48.300Z,13.30
2018-03-30T21:03:15.308Z,13.30
2018-03-30T21:05:41.443Z,13.30
2018-03-30T21:08:07.649Z,13.30
2018-03-30T21:10:33.709Z,13.40
2018-03-30T21:13:01.128Z,13.40
2018-03-30T21:15:27.152Z,13.40
2018-03-30T21:17:54.312Z,13.40
2018-03-30T21:20:20.330Z,13.50
2018-03-30T21:22:46.664Z,13.50
2018-03-30T21:25:13.288Z,13.50
2018-03-30T21:27:39.916Z,13.50
2018-03-30T21:30:06.573Z,13.50
2018-03-30T21:32:33.367Z,13.60
2018-03-30T21:34:59.592Z,13.60
2018-03-30T21:37:25.652Z,13.50
2018-03-30T21:39:52.049Z,13.60
2018-03-30T21:42:19.210Z,13.60
2018-03-30T21:44:46.174Z,13.60
2018-03-30T21:47:12.946Z,13.60
2018-03-30T21:49:39.534Z,13.70
2018-03-30T21:52:06.253Z,13.60
2018-03-30T21:54:32.524Z,13.50
2018-03-30T21:56:58.823Z,13.70
2018-03-30T21:59:25.777Z,13.70
2018-03-30T22:01:51.904Z,13.50
2018-03-30T22:04:17.935Z,13.50
2018-03-30T22:06:44.475Z,13.50
2018-03-30T22:09:10.575Z,13.50
2018-03-30T22:11:37.324Z,13.50
2018-03-30T22:17:09.346Z,13.40
2018-03-30T22:19:36.018Z,13.50
2018-03-30T22:22:03.214Z,13.40
2018-03-30T22:24:29.826Z,13.40
2018-03-30T22:26:55.852Z,13.40
2018-03-30T22:29:21.898Z,13.30
2018-03-30T22:31:48.182Z,13.30
2018-03-30T22:34:15.070Z,13.30
2018-03-30T22:36:41.663Z,13.30
2018-03-30T22:39:08.804Z,13.40
2018-03-30T22:41:35.582Z,13.50
2018-03-30T22:44:01.893Z,13.40
2018-03-30T22:46:27.936Z,13.50
2018-03-30T22:48:53.978Z,13.50
2018-03-30T22:51:21.047Z,13.50
2018-03-30T22:53:47.964Z,13.60
2018-03-30T22:56:14.390Z,13.60
2018-03-30T22:58:41.131Z,13.60
2018-03-30T23:01:10.888Z,13.60
2018-03-30T23:03:37.064Z,13.60
2018-03-30T23:06:03.120Z,13.70
2018-03-30T23:08:29.812Z,13.80
2018-03-30T23:10:56.600Z,13.70
2018-03-30T23:13:22.719Z,13.70
2018-03-30T23:15:49.340Z,13.70
2018-03-30T23:18:16.360Z,13.80
2018-03-30T23:20:42.791Z,13.70
2018-03-30T23:23:09.184Z,13.70
2018-03-30T23:25:36.120Z,13.70
2018-03-30T23:28:02.196Z,13.70
2018-03-30T23:30:29.148Z,13.70
2018-03-30T23:32:55.660Z,13.80
2018-03-30T23:35:22.264Z,13.80
2018-03-30T23:37:48.670Z,13.80
2018-03-30T23:40:17.512Z,13.80
2018-03-30T23:42:44.283Z,13.70
2018-03-30T23:45:10.342Z,13.70
2018-03-30T23:47:36.359Z,13.80
2018-03-30T23:50:02.767Z,13.30
2018-03-30T23:52:29.630Z,12.40
2018-03-30T23:54:56.093Z,12.30
2018-03-30T23:57:24.084Z,11.70
2018-03-30T23:59:50.158Z,11.70
